Time;durP1;ratioP1;P1;durP2;ratioP2;P2;SDS_P1;SDS_P2;PMS_P1;PMS_P2;Temp;Humidity;BMP_temperature;BMP_pressure;BME280_temperature;BME280_humidity;BME280_pressure;Samples;Min_cycle;Max_cycle;Signal;HPM_P1;HPM_P2
2021/03/01 00:08:16;;;;;;;15.85;7.90;;;2.90;99.90;;;;;;20984289;28;20298;-75
2021/03/01 00:18:17;;;;;;;13.17;6.47;;;3.00;99.90;;;;;;20979239;28;20020;-76
2021/03/01 00:28:17;;;;;;;13.32;6.68;;;2.80;99.90;;;;;;20964033;28;20029;-76
2021/03/01 00:38:18;;;;;;;18.20;7.57;;;2.40;99.90;;;;;;20973280;28;20024;-75
2021/03/01 00:48:19;;;;;;;13.95;6.65;;;2.30;99.90;;;;;;20976171;28;20028;-75
2021/03/01 00:58:20;;;;;;;13.00;6.35;;;2.40;99.90;;;;;;20990778;28;20494;-76
2021/03/01 01:08:23;;;;;;;18.70;7.15;;;2.40;99.90;;;;;;20940231;28;20120;-76
2021/03/01 01:18:25;;;;;;;13.68;7.63;;;2.40;99.90;;;;;;21166998;23;20525;-77
2021/03/01 01:28:26;;;;;;;15.45;7.55;;;2.30;99.90;;;;;;21133829;28;20069;-77
2021/03/01 01:38:26;;;;;;;;;;;2.20;99.90;;;;;;21080551;28;20032;-78
2021/03/01 01:48:27;;;;;;;12.17;6.43;;;2.10;99.90;;;;;;21060927;28;19908;-75
2021/03/01 01:58:28;;;;;;;;;;;2.00;99.90;;;;;;21080517;28;20644;-75
2021/03/01 02:08:41;;;;;;;16.67;8.15;;;1.90;99.90;;;;;;21095590;28;19912;-78
2021/03/01 02:18:44;;;;;;;16.95;8.05;;;1.70;99.90;;;;;;21080474;28;20024;-78
2021/03/01 02:28:49;;;;;;;17.17;6.82;;;1.70;99.90;;;;;;21099031;28;20032;-76
2021/03/01 02:38:52;;;;;;;26.65;8.85;;;1.50;99.90;;;;;;21098932;28;20082;-78
2021/03/01 02:48:55;;;;;;;16.58;7.18;;;1.50;99.90;;;;;;21097751;28;20032;-77
2021/03/01 02:58:58;;;;;;;19.17;8.02;;;1.50;99.90;;;;;;21099071;28;20108;-77
2021/03/01 03:08:59;;;;;;;17.50;7.68;;;1.30;99.90;;;;;;21098926;28;20024;-77
2021/03/01 03:19:02;;;;;;;18.60;8.15;;;1.00;99.90;;;;;;21097468;28;20035;-76
2021/03/01 03:29:03;;;;;;;20.75;8.88;;;0.90;99.90;;;;;;21081320;28;20028;-78
2021/03/01 03:39:16;;;;;;;21.38;9.40;;;0.80;99.90;;;;;;21099727;28;20055;-77
2021/03/01 03:49:19;;;;;;;21.30;9.40;;;0.60;99.90;;;;;;21099636;28;20024;-76
2021/03/01 03:59:22;;;;;;;22.20;8.48;;;0.50;99.90;;;;;;21076779;28;20035;-77
2021/03/01 04:09:25;;;;;;;21.67;8.88;;;0.30;99.90;;;;;;21073530;28;20030;-77
2021/03/01 04:19:28;;;;;;;16.88;8.57;;;0.30;99.90;;;;;;21074139;28;20024;-77
2021/03/01 04:29:30;;;;;;;29.45;10.95;;;0.40;99.90;;;;;;21071867;28;20032;-77
2021/03/01 04:39:31;;;;;;;29.15;9.93;;;0.20;99.90;;;;;;21086298;28;20024;-77
2021/03/01 04:49:32;;;;;;;21.60;9.10;;;0.20;99.90;;;;;;21059139;28;20036;-77
2021/03/01 04:59:33;;;;;;;27.55;11.20;;;0.00;99.90;;;;;;21059426;28;20062;-78
2021/03/01 05:09:37;;;;;;;21.60;9.63;;;0.10;99.90;;;;;;21059094;28;20036;-75
2021/03/01 05:19:37;;;;;;;20.88;9.82;;;0.00;99.90;;;;;;21036029;28;20040;-76
2021/03/01 05:29:38;;;;;;;34.10;14.07;;;0.00;99.90;;;;;;20990033;28;20036;-74
2021/03/01 05:39:39;;;;;;;25.48;11.43;;;0.10;99.90;;;;;;21022939;28;20048;-76
2021/03/01 05:49:42;;;;;;;22.33;11.27;;;0.30;99.90;;;;;;21037827;28;20031;-74
2021/03/01 05:59:46;;;;;;;27.23;12.13;;;0.10;99.90;;;;;;21084916;28;20028;-75
2021/03/01 06:09:47;;;;;;;42.83;16.30;;;0.00;99.90;;;;;;21085861;28;20032;-74
2021/03/01 06:19:56;;;;;;;38.42;11.93;;;-0.10;99.90;;;;;;21087652;28;20122;-76
2021/03/01 06:30:05;;;;;;;18.02;8.43;;;0.00;99.90;;;;;;21058090;28;20027;-77
2021/03/01 06:40:06;;;;;;;21.10;9.35;;;0.00;99.90;;;;;;21094917;28;20040;-77
2021/03/01 06:50:32;;;;;;;27.20;8.88;;;0.20;99.90;;;;;;21055892;28;20036;-77
2021/03/01 07:00:32;;;;;;;25.38;10.18;;;0.70;99.90;;;;;;21085182;28;20081;-77
2021/03/01 07:10:36;;;;;;;19.95;9.65;;;0.80;99.90;;;;;;21099277;23;20131;-75
2021/03/01 07:20:37;;;;;;;19.48;8.40;;;1.30;99.90;;;;;;21150430;28;20397;-75
2021/03/01 07:30:42;;;;;;;18.65;8.02;;;1.80;99.90;;;;;;21167725;28;20101;-75
2021/03/01 07:40:43;;;;;;;25.10;9.13;;;1.80;99.90;;;;;;21165998;28;20026;-75
2021/03/01 07:50:48;;;;;;;22.67;9.05;;;2.50;99.90;;;;;;21165315;28;20047;-75
2021/03/01 08:00:48;;;;;;;17.70;9.20;;;2.80;99.90;;;;;;21163528;28;20115;-75
2021/03/01 08:10:49;;;;;;;22.60;10.10;;;3.30;99.90;;;;;;21173613;28;20039;-75
2021/03/01 08:20:55;;;;;;;20.30;9.60;;;3.50;99.90;;;;;;21162321;28;20137;-75
2021/03/01 08:31:16;;;;;;;21.08;9.40;;;4.40;99.90;;;;;;21162761;28;20890;-74
2021/03/01 08:41:19;;;;;;;19.10;9.13;;;5.40;99.90;;;;;;21165660;28;20030;-75
2021/03/01 08:51:20;;;;;;;16.17;8.50;;;5.70;99.90;;;;;;21163130;28;20024;-75
2021/03/01 09:01:21;;;;;;;20.75;8.88;;;6.80;99.90;;;;;;21161607;28;20027;-75
2021/03/01 09:11:25;;;;;;;18.87;8.90;;;7.40;99.90;;;;;;21163431;28;20493;-75
2021/03/01 09:21:26;;;;;;;17.73;10.02;;;7.30;99.90;;;;;;21160516;28;20031;-75
2021/03/01 09:31:28;;;;;;;20.88;8.90;;;7.70;99.90;;;;;;21160225;28;20053;-75
2021/03/01 09:41:39;;;;;;;16.23;8.77;;;8.50;99.90;;;;;;21139362;28;20036;-76
2021/03/01 09:51:39;;;;;;;16.75;9.55;;;9.10;99.90;;;;;;21157663;28;20047;-76
2021/03/01 10:01:40;;;;;;;16.87;9.47;;;10.00;99.90;;;;;;21157239;28;20049;-76
2021/03/01 10:11:41;;;;;;;14.97;8.90;;;10.00;99.90;;;;;;21156741;28;20024;-76
2021/03/01 10:21:43;;;;;;;17.67;8.68;;;11.10;99.90;;;;;;21138714;28;20063;-76
2021/03/01 10:31:44;;;;;;;15.75;8.85;;;10.90;99.90;;;;;;21171310;28;20081;-76
2021/03/01 10:41:50;;;;;;;16.85;10.10;;;12.00;99.90;;;;;;21170663;28;20043;-76
2021/03/01 10:51:53;;;;;;;17.92;9.18;;;13.30;99.90;;;;;;21169627;28;20100;-76
2021/03/01 11:01:54;;;;;;;15.75;8.80;;;13.40;99.90;;;;;;21151535;28;20485;-76
2021/03/01 11:11:55;;;;;;;16.40;9.73;;;14.40;99.90;;;;;;21168637;28;20028;-76
2021/03/01 11:21:56;;;;;;;21.95;9.73;;;14.30;99.90;;;;;;21169637;28;20059;-76
2021/03/01 11:31:56;;;;;;;21.85;11.02;;;15.10;99.90;;;;;;21153080;28;20027;-77
2021/03/01 11:41:57;;;;;;;17.33;10.48;;;13.10;99.90;;;;;;21144725;28;20067;-77
2021/03/01 11:51:58;;;;;;;27.35;11.60;;;13.90;99.90;;;;;;21164706;28;20030;-77
2021/03/01 12:01:59;;;;;;;18.50;10.95;;;13.10;99.90;;;;;;21145537;28;20100;-77
2021/03/01 12:12:00;;;;;;;20.98;11.00;;;13.70;99.90;;;;;;21162298;28;20031;-77
2021/03/01 12:22:01;;;;;;;19.90;10.88;;;15.20;99.90;;;;;;21161578;28;20160;-77
2021/03/01 12:32:01;;;;;;;18.13;10.68;;;13.70;99.90;;;;;;21161319;28;20427;-77
2021/03/01 12:42:03;;;;;;;17.00;9.98;;;14.60;99.90;;;;;;21160634;28;20054;-77
2021/03/01 12:52:05;;;;;;;19.77;10.48;;;14.70;99.90;;;;;;21159583;28;20023;-77
2021/03/01 13:02:06;;;;;;;18.08;10.55;;;13.60;99.90;;;;;;21158984;28;20055;-77
2021/03/01 13:12:08;;;;;;;15.70;10.25;;;14.10;99.90;;;;;;21103878;22;20049;-77
2021/03/01 13:22:09;;;;;;;18.83;10.40;;;14.70;99.90;;;;;;20849621;28;20076;-79
2021/03/01 13:32:10;;;;;;;18.65;10.25;;;14.60;99.90;;;;;;20820693;28;20385;-77
2021/03/01 13:42:11;;;;;;;17.15;9.75;;;15.40;99.90;;;;;;20835541;28;20029;-77
2021/03/01 13:52:11;;;;;;;20.58;10.65;;;14.90;99.90;;;;;;20830409;28;20117;-77
2021/03/01 14:02:12;;;;;;;22.17;12.18;;;15.30;99.90;;;;;;20845701;28;20109;-77
2021/03/01 14:12:13;;;;;;;21.67;10.95;;;14.90;99.90;;;;;;20858900;28;20037;-78
2021/03/01 14:22:14;;;;;;;18.30;9.93;;;16.20;99.80;;;;;;20859234;28;20029;-78
2021/03/01 14:32:15;;;;;;;22.88;10.07;;;16.60;99.20;;;;;;20846611;28;20040;-78
2021/03/01 14:42:16;;;;;;;19.83;10.35;;;16.20;98.00;;;;;;20862796;28;20033;-78
2021/03/01 14:52:17;;;;;;;17.73;10.43;;;16.60;97.70;;;;;;20845647;28;20037;-78
2021/03/01 15:02:17;;;;;;;19.80;10.45;;;16.50;97.80;;;;;;20827503;28;20475;-77
2021/03/01 15:12:18;;;;;;;20.17;10.55;;;16.90;97.40;;;;;;20860059;28;20459;-77
2021/03/01 15:22:19;;;;;;;17.90;10.43;;;15.40;98.90;;;;;;20844292;28;20119;-78
2021/03/01 15:32:20;;;;;;;18.33;9.85;;;15.60;98.70;;;;;;20841554;28;20040;-77
2021/03/01 15:42:21;;;;;;;19.48;9.95;;;15.70;98.90;;;;;;20820313;28;20033;-78
2021/03/01 15:52:21;;;;;;;17.23;10.15;;;15.40;98.00;;;;;;20836220;28;20387;-77
2021/03/01 16:02:22;;;;;;;18.13;10.63;;;15.90;97.80;;;;;;20855710;28;20033;-78
2021/03/01 16:12:23;;;;;;;22.85;11.20;;;15.90;97.50;;;;;;20813382;28;20128;-78
2021/03/01 16:22:24;;;;;;;17.02;10.63;;;14.60;99.20;;;;;;20825987;28;20042;-77
2021/03/01 16:32:25;;;;;;;22.80;12.65;;;13.80;99.90;;;;;;20815079;28;20041;-76
2021/03/01 16:42:26;;;;;;;22.10;11.50;;;13.30;99.90;;;;;;20892495;28;20830;-77
2021/03/01 16:52:28;;;;;;;20.95;11.40;;;12.50;99.90;;;;;;20857524;28;20056;-76
2021/03/01 17:02:29;;;;;;;22.30;11.73;;;11.80;99.90;;;;;;20872072;28;20048;-78
2021/03/01 17:12:42;;;;;;;26.25;13.48;;;11.00;99.90;;;;;;20824870;28;20522;-77
2021/03/01 17:22:46;;;;;;;24.20;11.60;;;10.40;99.90;;;;;;20815641;28;20115;-77
2021/03/01 17:32:47;;;;;;;23.67;12.35;;;9.40;99.90;;;;;;20802063;28;20804;-78
2021/03/01 17:42:49;;;;;;;26.30;13.50;;;8.90;99.90;;;;;;20841275;28;20045;-78
2021/03/01 17:52:51;;;;;;;;;;;8.40;99.90;;;;;;20845126;28;20436;-77
2021/03/01 18:02:59;;;;;;;28.27;12.35;;;8.20;99.90;;;;;;20818741;28;19921;-78
2021/03/01 18:13:00;;;;;;;30.45;12.07;;;8.00;99.90;;;;;;20899218;28;20036;-78
2021/03/01 18:23:04;;;;;;;31.00;15.77;;;7.80;99.90;;;;;;20921048;28;20771;-78
2021/03/01 18:33:14;;;;;;;30.13;14.13;;;7.40;99.90;;;;;;20918033;28;20041;-77
2021/03/01 18:43:17;;;;;;;28.23;14.15;;;7.40;99.90;;;;;;20918079;28;20090;-78
2021/03/01 18:53:19;;;;;;;28.45;13.55;;;7.30;99.90;;;;;;20822712;28;20484;-77
2021/03/01 19:03:19;;;;;;;33.72;14.45;;;7.00;99.90;;;;;;20855355;28;20064;-77
2021/03/01 19:13:21;;;;;;;27.10;13.67;;;7.00;99.90;;;;;;20804719;28;20041;-77
2021/03/01 19:23:21;;;;;;;29.67;12.97;;;7.00;99.90;;;;;;20912822;23;20128;-76
2021/03/01 19:33:22;;;;;;;27.50;12.40;;;6.60;99.90;;;;;;20931514;28;20128;-76
2021/03/01 19:43:23;;;;;;;31.73;12.97;;;6.40;99.90;;;;;;20978676;28;20070;-75
2021/03/01 19:53:24;;;;;;;29.00;13.53;;;6.30;99.90;;;;;;21083790;28;20580;-76
2021/03/01 20:03:25;;;;;;;19.17;10.00;;;6.10;99.90;;;;;;21061116;28;20405;-76
2021/03/01 20:13:26;;;;;;;27.77;13.53;;;5.70;99.90;;;;;;21060775;28;20032;-77
2021/03/01 20:23:26;;;;;;;28.83;13.90;;;5.60;99.90;;;;;;21037777;28;20494;-77
2021/03/01 20:33:27;;;;;;;27.83;12.13;;;5.70;99.90;;;;;;20974060;28;20024;-77
2021/03/01 20:43:28;;;;;;;26.27;12.27;;;5.90;99.90;;;;;;20974441;28;20051;-76
2021/03/01 20:53:29;;;;;;;26.93;12.13;;;5.90;99.90;;;;;;20975008;28;20127;-76
2021/03/01 21:03:32;;;;;;;25.03;12.03;;;5.90;99.90;;;;;;20961867;28;20041;-76
2021/03/01 21:13:34;;;;;;;23.27;11.48;;;5.90;99.90;;;;;;20973975;28;20041;-76
2021/03/01 21:23:40;;;;;;;25.80;11.50;;;5.80;99.90;;;;;;20972030;28;20052;-76
2021/03/01 21:33:47;;;;;;;24.55;10.80;;;5.70;99.90;;;;;;20971615;28;20040;-75
2021/03/01 21:43:48;;;;;;;22.20;10.68;;;5.60;99.90;;;;;;20972360;28;20090;-77
2021/03/01 21:53:50;;;;;;;24.10;10.53;;;5.50;99.90;;;;;;20972508;28;20680;-76
2021/03/01 22:03:54;;;;;;;25.10;11.13;;;5.30;99.90;;;;;;21037905;28;20406;-76
2021/03/01 22:13:56;;;;;;;21.05;10.60;;;5.10;99.90;;;;;;21026053;28;20490;-75
2021/03/01 22:23:57;;;;;;;21.73;10.80;;;5.10;99.90;;;;;;21052584;28;20073;-74
2021/03/01 22:34:03;;;;;;;22.93;10.60;;;4.60;99.90;;;;;;21054691;28;20139;-76
2021/03/01 22:44:06;;;;;;;28.52;10.80;;;4.40;99.90;;;;;;20992511;28;20047;-77
2021/03/01 22:54:09;;;;;;;17.80;9.65;;;4.50;99.90;;;;;;21039762;28;20028;-76
2021/03/01 23:04:10;;;;;;;20.10;10.48;;;4.50;99.90;;;;;;21025295;28;20125;-76
2021/03/01 23:14:12;;;;;;;21.57;10.43;;;4.40;99.90;;;;;;21060706;28;20083;-75
2021/03/01 23:24:13;;;;;;;21.90;10.18;;;4.30;99.90;;;;;;21044596;28;20371;-75
2021/03/01 23:34:14;;;;;;;25.88;10.75;;;4.20;99.90;;;;;;21026633;28;20036;-76
2021/03/01 23:44:16;;;;;;;17.23;8.90;;;4.20;99.90;;;;;;21059507;28;20789;-76
2021/03/01 23:54:20;;;;;;;23.83;10.98;;;4.10;99.90;;;;;;21059115;28;20028;-76
